Terminal Aerodrome Forecast
Issued by NWS

Home | Current Version | Previous Version | Text Only | Print | Product List | Glossary On
Versions: 1 2 3 4 5 6 7 8 9 10 11 12 13
000
FTUS46 KSGX 012320
TAFTRM
TAF
KTRM 012320Z 0200/0224 14009KT P6SM SCT250
     FM020200 VRB06KT P6SM SCT250
     FM020400 33009KT P6SM SCT250
     FM020700 VRB06KT P6SM SCT250
     FM022000 14009KT P6SM FEW250=

USA.gov is the U.S. government's official web portal to all federal, state and local government web resources and services.